sensor_id;sensor_type;location;lat;lon;timestamp;P1;durP1;ratioP1;P2;durP2;ratioP2
2438;SDS011;14509;47.992;7.848;2024-02-28T19:22:30;15.43;;;11.67;;
2438;SDS011;14509;47.992;7.848;2024-02-28T19:24:37;16.75;;;12.82;;
2438;SDS011;14509;47.992;7.848;2024-02-28T19:26:40;14.35;;;11.35;;
2438;SDS011;14509;47.992;7.848;2024-02-28T19:28:42;17.33;;;13.10;;
2438;SDS011;14509;47.992;7.848;2024-02-28T19:30:44;17.00;;;12.13;;
2438;SDS011;14509;47.992;7.848;2024-02-28T19:32:46;16.27;;;12.38;;
2438;SDS011;14509;47.992;7.848;2024-02-28T19:34:49;14.98;;;13.02;;
2438;SDS011;14509;47.992;7.848;2024-02-28T19:36:51;15.25;;;12.40;;
2438;SDS011;14509;47.992;7.848;2024-02-28T19:38:54;16.45;;;12.98;;
2438;SDS011;14509;47.992;7.848;2024-02-28T19:40:59;17.63;;;12.73;;
2438;SDS011;14509;47.992;7.848;2024-02-28T19:43:02;17.50;;;12.97;;
2438;SDS011;14509;47.992;7.848;2024-02-28T19:45:03;16.85;;;12.80;;
2438;SDS011;14509;47.992;7.848;2024-02-28T19:47:05;16.55;;;13.30;;
2438;SDS011;14509;47.992;7.848;2024-02-28T19:49:06;19.50;;;14.40;;
2438;SDS011;14509;47.992;7.848;2024-02-28T19:51:08;17.17;;;13.07;;
2438;SDS011;14509;47.992;7.848;2024-02-28T19:53:11;19.08;;;13.25;;
2438;SDS011;14509;47.992;7.848;2024-02-28T19:55:14;18.63;;;12.75;;
2438;SDS011;14509;47.992;7.848;2024-02-28T19:57:16;17.45;;;13.10;;
2438;SDS011;14509;47.992;7.848;2024-02-28T19:59:19;17.67;;;13.68;;
2438;SDS011;14509;47.992;7.848;2024-02-28T20:01:35;15.68;;;12.15;;
2438;SDS011;14509;47.992;7.848;2024-02-28T20:03:37;16.63;;;13.98;;
2438;SDS011;14509;47.992;7.848;2024-02-28T20:05:38;15.70;;;13.18;;
2438;SDS011;14509;47.992;7.848;2024-02-28T20:07:40;17.90;;;14.30;;
2438;SDS011;14509;47.992;7.848;2024-02-28T20:09:42;16.92;;;13.35;;
2438;SDS011;14509;47.992;7.848;2024-02-28T20:11:45;19.10;;;14.55;;
2438;SDS011;14509;47.992;7.848;2024-02-28T20:13:47;17.20;;;13.68;;
2438;SDS011;14509;47.992;7.848;2024-02-28T20:15:50;17.10;;;13.40;;
2438;SDS011;14509;47.992;7.848;2024-02-28T20:17:53;17.07;;;12.80;;
2438;SDS011;14509;47.992;7.848;2024-02-28T20:19:56;15.70;;;11.20;;
2438;SDS011;14509;47.992;7.848;2024-02-28T20:21:58;16.60;;;12.82;;
2438;SDS011;14509;47.992;7.848;2024-02-28T20:23:59;16.63;;;12.80;;
2438;SDS011;14509;47.992;7.848;2024-02-28T20:26:01;16.20;;;12.02;;
2438;SDS011;14509;47.992;7.848;2024-02-28T20:28:05;14.70;;;11.82;;
2438;SDS011;14509;47.992;7.848;2024-02-28T20:30:07;15.48;;;12.00;;
2438;SDS011;14509;47.992;7.848;2024-02-28T20:32:09;17.05;;;12.70;;
2438;SDS011;14509;47.992;7.848;2024-02-28T20:34:11;14.95;;;12.07;;
2438;SDS011;14509;47.992;7.848;2024-02-28T20:36:12;15.25;;;12.30;;
2438;SDS011;14509;47.992;7.848;2024-02-28T20:38:14;15.70;;;12.35;;
2438;SDS011;14509;47.992;7.848;2024-02-28T20:40:17;15.70;;;12.88;;
2438;SDS011;14509;47.992;7.848;2024-02-28T20:42:19;17.05;;;13.35;;
2438;SDS011;14509;47.992;7.848;2024-02-28T20:44:22;20.25;;;15.02;;
2438;SDS011;14509;47.992;7.848;2024-02-28T20:46:24;17.60;;;13.52;;
2438;SDS011;14509;47.992;7.848;2024-02-28T20:48:26;18.17;;;13.57;;
2438;SDS011;14509;47.992;7.848;2024-02-28T20:50:28;16.73;;;13.75;;
2438;SDS011;14509;47.992;7.848;2024-02-28T20:52:31;16.98;;;13.05;;
2438;SDS011;14509;47.992;7.848;2024-02-28T20:54:33;16.75;;;13.27;;
2438;SDS011;14509;47.992;7.848;2024-02-28T20:56:35;17.33;;;14.40;;
2438;SDS011;14509;47.992;7.848;2024-02-28T20:58:39;21.23;;;13.48;;
2438;SDS011;14509;47.992;7.848;2024-02-28T21:00:42;19.40;;;14.90;;
2438;SDS011;14509;47.992;7.848;2024-02-28T21:02:44;19.50;;;13.13;;
2438;SDS011;14509;47.992;7.848;2024-02-28T21:04:46;16.05;;;13.13;;
2438;SDS011;14509;47.992;7.848;2024-02-28T21:06:48;20.30;;;13.93;;
2438;SDS011;14509;47.992;7.848;2024-02-28T21:08:49;17.85;;;13.32;;
2438;SDS011;14509;47.992;7.848;2024-02-28T21:10:51;19.43;;;13.83;;
2438;SDS011;14509;47.992;7.848;2024-02-28T21:12:53;19.07;;;13.80;;
2438;SDS011;14509;47.992;7.848;2024-02-28T21:14:55;18.70;;;15.32;;
2438;SDS011;14509;47.992;7.848;2024-02-28T21:16:57;19.13;;;14.90;;
2438;SDS011;14509;47.992;7.848;2024-02-28T21:18:59;20.60;;;15.70;;
2438;SDS011;14509;47.992;7.848;2024-02-28T21:21:01;18.75;;;15.07;;
2438;SDS011;14509;47.992;7.848;2024-02-28T21:23:05;22.90;;;16.90;;
2438;SDS011;14509;47.992;7.848;2024-02-28T21:25:07;20.10;;;16.17;;
2438;SDS011;14509;47.992;7.848;2024-02-28T21:27:08;17.55;;;14.50;;
2438;SDS011;14509;47.992;7.848;2024-02-28T21:29:10;20.50;;;16.23;;
2438;SDS011;14509;47.992;7.848;2024-02-28T21:31:12;19.83;;;15.68;;
2438;SDS011;14509;47.992;7.848;2024-02-28T21:33:15;19.17;;;15.10;;
2438;SDS011;14509;47.992;7.848;2024-02-28T21:35:17;20.05;;;16.35;;
2438;SDS011;14509;47.992;7.848;2024-02-28T21:37:19;22.08;;;16.90;;
2438;SDS011;14509;47.992;7.848;2024-02-28T21:39:21;22.57;;;15.90;;
2438;SDS011;14509;47.992;7.848;2024-02-28T21:41:23;21.45;;;15.70;;
2438;SDS011;14509;47.992;7.848;2024-02-28T21:43:25;20.23;;;15.65;;
2438;SDS011;14509;47.992;7.848;2024-02-28T21:45:27;21.67;;;16.65;;
2438;SDS011;14509;47.992;7.848;2024-02-28T21:47:29;17.27;;;14.90;;
2438;SDS011;14509;47.992;7.848;2024-02-28T21:49:32;20.90;;;14.48;;
2438;SDS011;14509;47.992;7.848;2024-02-28T21:51:34;19.73;;;14.85;;
2438;SDS011;14509;47.992;7.848;2024-02-28T21:53:35;17.95;;;14.32;;
2438;SDS011;14509;47.992;7.848;2024-02-28T21:55:37;17.38;;;14.75;;
2438;SDS011;14509;47.992;7.848;2024-02-28T21:57:38;20.63;;;14.68;;
2438;SDS011;14509;47.992;7.848;2024-02-28T21:59:45;18.40;;;14.18;;
2438;SDS011;14509;47.992;7.848;2024-02-28T22:01:47;20.58;;;15.27;;
2438;SDS011;14509;47.992;7.848;2024-02-28T22:03:49;16.92;;;13.68;;
2438;SDS011;14509;47.992;7.848;2024-02-28T22:05:52;20.05;;;13.90;;
2438;SDS011;14509;47.992;7.848;2024-02-28T22:07:54;17.38;;;13.43;;
2438;SDS011;14509;47.992;7.848;2024-02-28T22:09:56;19.23;;;13.52;;
2438;SDS011;14509;47.992;7.848;2024-02-28T22:11:57;20.52;;;14.50;;
2438;SDS011;14509;47.992;7.848;2024-02-28T22:13:59;19.00;;;14.35;;
2438;SDS011;14509;47.992;7.848;2024-02-28T22:16:01;19.00;;;13.90;;
2438;SDS011;14509;47.992;7.848;2024-02-28T22:18:04;17.80;;;13.80;;
2438;SDS011;14509;47.992;7.848;2024-02-28T22:20:06;19.20;;;13.77;;
2438;SDS011;14509;47.992;7.848;2024-02-28T22:22:09;18.67;;;14.07;;
2438;SDS011;14509;47.992;7.848;2024-02-28T22:24:11;19.55;;;13.43;;
2438;SDS011;14509;47.992;7.848;2024-02-28T22:26:13;20.92;;;14.00;;
2438;SDS011;14509;47.992;7.848;2024-02-28T22:28:14;23.90;;;14.80;;
2438;SDS011;14509;47.992;7.848;2024-02-28T22:30:16;21.95;;;14.38;;
2438;SDS011;14509;47.992;7.848;2024-02-28T22:32:18;20.05;;;13.82;;
2438;SDS011;14509;47.992;7.848;2024-02-28T22:34:20;22.60;;;14.63;;
2438;SDS011;14509;47.992;7.848;2024-02-28T22:36:21;20.02;;;14.00;;
2438;SDS011;14509;47.992;7.848;2024-02-28T22:38:24;18.50;;;14.30;;
2438;SDS011;14509;47.992;7.848;2024-02-28T22:40:26;19.40;;;14.50;;
2438;SDS011;14509;47.992;7.848;2024-02-28T22:42:28;19.92;;;14.52;;
2438;SDS011;14509;47.992;7.848;2024-02-28T22:44:29;22.48;;;15.02;;
2438;SDS011;14509;47.992;7.848;2024-02-28T22:46:30;20.67;;;15.02;;
2438;SDS011;14509;47.992;7.848;2024-02-28T22:48:32;20.63;;;15.25;;
2438;SDS011;14509;47.992;7.848;2024-02-28T22:50:34;21.27;;;14.20;;
2438;SDS011;14509;47.992;7.848;2024-02-28T22:52:36;20.02;;;14.60;;
2438;SDS011;14509;47.992;7.848;2024-02-28T22:54:41;19.67;;;14.38;;
2438;SDS011;14509;47.992;7.848;2024-02-28T22:56:44;20.03;;;14.97;;
2438;SDS011;14509;47.992;7.848;2024-02-28T22:58:46;23.15;;;15.02;;
2438;SDS011;14509;47.992;7.848;2024-02-28T23:00:48;21.58;;;15.93;;
2438;SDS011;14509;47.992;7.848;2024-02-28T23:02:50;20.75;;;15.73;;
2438;SDS011;14509;47.992;7.848;2024-02-28T23:04:51;22.90;;;15.50;;
2438;SDS011;14509;47.992;7.848;2024-02-28T23:06:53;21.85;;;17.20;;
2438;SDS011;14509;47.992;7.848;2024-02-28T23:08:55;23.83;;;16.88;;
2438;SDS011;14509;47.992;7.848;2024-02-28T23:10:59;23.55;;;17.02;;
2438;SDS011;14509;47.992;7.848;2024-02-28T23:13:00;25.38;;;17.52;;
2438;SDS011;14509;47.992;7.848;2024-02-28T23:15:02;24.90;;;18.25;;
2438;SDS011;14509;47.992;7.848;2024-02-28T23:17:04;27.03;;;17.63;;
2438;SDS011;14509;47.992;7.848;2024-02-28T23:19:06;22.60;;;17.40;;
2438;SDS011;14509;47.992;7.848;2024-02-28T23:21:08;23.75;;;17.10;;
2438;SDS011;14509;47.992;7.848;2024-02-28T23:23:10;22.10;;;16.73;;
2438;SDS011;14509;47.992;7.848;2024-02-28T23:25:11;22.05;;;15.52;;
2438;SDS011;14509;47.992;7.848;2024-02-28T23:27:15;24.50;;;17.48;;
2438;SDS011;14509;47.992;7.848;2024-02-28T23:29:17;23.80;;;17.73;;
2438;SDS011;14509;47.992;7.848;2024-02-28T23:31:18;26.13;;;18.10;;
2438;SDS011;14509;47.992;7.848;2024-02-28T23:33:21;25.55;;;17.30;;
2438;SDS011;14509;47.992;7.848;2024-02-28T23:35:24;24.08;;;18.30;;
2438;SDS011;14509;47.992;7.848;2024-02-28T23:37:25;23.67;;;17.33;;
2438;SDS011;14509;47.992;7.848;2024-02-28T23:39:26;25.00;;;18.10;;
2438;SDS011;14509;47.992;7.848;2024-02-28T23:41:28;25.52;;;17.15;;
2438;SDS011;14509;47.992;7.848;2024-02-28T23:43:33;25.40;;;17.57;;
2438;SDS011;14509;47.992;7.848;2024-02-28T23:45:35;23.67;;;16.85;;
2438;SDS011;14509;47.992;7.848;2024-02-28T23:47:36;27.17;;;17.88;;
2438;SDS011;14509;47.992;7.848;2024-02-28T23:49:38;22.65;;;17.70;;
2438;SDS011;14509;47.992;7.848;2024-02-28T23:51:42;26.48;;;17.23;;
2438;SDS011;14509;47.992;7.848;2024-02-28T23:53:44;27.15;;;17.83;;
2438;SDS011;14509;47.992;7.848;2024-02-28T23:55:46;28.42;;;18.60;;
2438;SDS011;14509;47.992;7.848;2024-02-28T23:57:48;28.10;;;17.88;;
2438;SDS011;14509;47.992;7.848;2024-02-28T23:59:51;27.55;;;18.80;;
